sensor_id;sensor_type;location;lat;lon;timestamp;P1;durP1;ratioP1;P2;durP2;ratioP2
52668;SDS011;59898;52.786;6.892;2023-05-07T00:00:34;16.92;;;13.02;;
52668;SDS011;59898;52.786;6.892;2023-05-07T00:03:54;14.82;;;12.88;;
52668;SDS011;59898;52.786;6.892;2023-05-07T00:07:15;17.67;;;13.80;;
52668;SDS011;59898;52.786;6.892;2023-05-07T00:10:36;15.52;;;13.50;;
52668;SDS011;59898;52.786;6.892;2023-05-07T00:13:56;19.83;;;14.15;;
52668;SDS011;59898;52.786;6.892;2023-05-07T00:17:17;17.27;;;13.70;;
52668;SDS011;59898;52.786;6.892;2023-05-07T00:20:37;19.02;;;14.25;;
52668;SDS011;59898;52.786;6.892;2023-05-07T00:23:58;18.45;;;15.00;;
52668;SDS011;59898;52.786;6.892;2023-05-07T00:27:18;18.15;;;13.82;;
52668;SDS011;59898;52.786;6.892;2023-05-07T00:30:39;17.60;;;14.30;;
52668;SDS011;59898;52.786;6.892;2023-05-07T00:33:59;16.08;;;14.23;;
52668;SDS011;59898;52.786;6.892;2023-05-07T00:37:20;16.98;;;14.10;;
52668;SDS011;59898;52.786;6.892;2023-05-07T00:40:40;20.63;;;14.82;;
52668;SDS011;59898;52.786;6.892;2023-05-07T00:44:01;19.02;;;14.95;;
52668;SDS011;59898;52.786;6.892;2023-05-07T00:47:22;18.05;;;14.52;;
52668;SDS011;59898;52.786;6.892;2023-05-07T00:50:42;19.70;;;16.33;;
52668;SDS011;59898;52.786;6.892;2023-05-07T00:54:04;21.58;;;15.98;;
52668;SDS011;59898;52.786;6.892;2023-05-07T00:57:24;24.10;;;17.73;;
52668;SDS011;59898;52.786;6.892;2023-05-07T01:00:45;20.50;;;15.77;;
52668;SDS011;59898;52.786;6.892;2023-05-07T01:04:06;19.20;;;16.60;;
52668;SDS011;59898;52.786;6.892;2023-05-07T01:07:26;21.27;;;17.23;;
52668;SDS011;59898;52.786;6.892;2023-05-07T01:10:47;21.02;;;17.45;;
52668;SDS011;59898;52.786;6.892;2023-05-07T01:14:08;21.92;;;16.92;;
52668;SDS011;59898;52.786;6.892;2023-05-07T01:17:32;24.45;;;18.48;;
52668;SDS011;59898;52.786;6.892;2023-05-07T01:20:55;21.88;;;17.00;;
52668;SDS011;59898;52.786;6.892;2023-05-07T01:24:18;24.05;;;18.38;;
52668;SDS011;59898;52.786;6.892;2023-05-07T01:27:38;23.58;;;18.17;;
52668;SDS011;59898;52.786;6.892;2023-05-07T01:31:02;25.65;;;18.42;;
52668;SDS011;59898;52.786;6.892;2023-05-07T01:34:26;24.02;;;19.40;;
52668;SDS011;59898;52.786;6.892;2023-05-07T01:37:50;22.17;;;18.67;;
52668;SDS011;59898;52.786;6.892;2023-05-07T01:41:11;24.92;;;20.15;;
52668;SDS011;59898;52.786;6.892;2023-05-07T01:44:33;25.83;;;19.60;;
52668;SDS011;59898;52.786;6.892;2023-05-07T01:47:54;22.30;;;18.48;;
52668;SDS011;59898;52.786;6.892;2023-05-07T01:51:15;26.30;;;20.42;;
52668;SDS011;59898;52.786;6.892;2023-05-07T01:54:36;30.30;;;21.25;;
52668;SDS011;59898;52.786;6.892;2023-05-07T01:57:56;30.27;;;21.02;;
52668;SDS011;59898;52.786;6.892;2023-05-07T02:01:17;30.08;;;22.60;;
52668;SDS011;59898;52.786;6.892;2023-05-07T02:04:38;28.67;;;22.00;;
52668;SDS011;59898;52.786;6.892;2023-05-07T02:07:58;27.20;;;21.85;;
52668;SDS011;59898;52.786;6.892;2023-05-07T02:11:19;26.00;;;20.65;;
52668;SDS011;59898;52.786;6.892;2023-05-07T02:14:40;30.05;;;22.08;;
52668;SDS011;59898;52.786;6.892;2023-05-07T02:21:26;34.55;;;22.40;;
52668;SDS011;59898;52.786;6.892;2023-05-07T02:24:46;30.42;;;23.23;;
52668;SDS011;59898;52.786;6.892;2023-05-07T02:28:07;34.65;;;23.92;;
52668;SDS011;59898;52.786;6.892;2023-05-07T02:31:27;30.77;;;22.40;;
52668;SDS011;59898;52.786;6.892;2023-05-07T02:34:50;30.83;;;22.75;;
52668;SDS011;59898;52.786;6.892;2023-05-07T02:38:11;38.45;;;25.98;;
52668;SDS011;59898;52.786;6.892;2023-05-07T02:41:31;35.22;;;25.23;;
52668;SDS011;59898;52.786;6.892;2023-05-07T02:44:52;34.42;;;26.73;;
52668;SDS011;59898;52.786;6.892;2023-05-07T02:48:12;31.27;;;24.90;;
52668;SDS011;59898;52.786;6.892;2023-05-07T02:51:33;38.10;;;28.20;;
52668;SDS011;59898;52.786;6.892;2023-05-07T02:54:53;35.05;;;26.67;;
52668;SDS011;59898;52.786;6.892;2023-05-07T02:58:14;34.45;;;26.52;;
52668;SDS011;59898;52.786;6.892;2023-05-07T03:01:34;33.85;;;25.17;;
52668;SDS011;59898;52.786;6.892;2023-05-07T03:04:55;42.92;;;27.98;;
52668;SDS011;59898;52.786;6.892;2023-05-07T03:08:16;34.20;;;25.67;;
52668;SDS011;59898;52.786;6.892;2023-05-07T03:11:37;36.00;;;27.83;;
52668;SDS011;59898;52.786;6.892;2023-05-07T03:14:58;34.60;;;26.95;;
52668;SDS011;59898;52.786;6.892;2023-05-07T03:18:18;35.85;;;26.00;;
52668;SDS011;59898;52.786;6.892;2023-05-07T03:21:39;38.75;;;27.73;;
52668;SDS011;59898;52.786;6.892;2023-05-07T03:24:59;37.47;;;26.55;;
52668;SDS011;59898;52.786;6.892;2023-05-07T03:28:20;37.35;;;27.25;;
52668;SDS011;59898;52.786;6.892;2023-05-07T03:31:40;35.30;;;26.23;;
52668;SDS011;59898;52.786;6.892;2023-05-07T03:35:01;33.67;;;26.45;;
52668;SDS011;59898;52.786;6.892;2023-05-07T03:38:22;33.90;;;26.30;;
52668;SDS011;59898;52.786;6.892;2023-05-07T03:41:43;33.75;;;25.45;;
52668;SDS011;59898;52.786;6.892;2023-05-07T03:45:03;36.08;;;26.83;;
52668;SDS011;59898;52.786;6.892;2023-05-07T03:48:25;37.67;;;27.45;;
52668;SDS011;59898;52.786;6.892;2023-05-07T03:51:45;37.05;;;27.48;;
52668;SDS011;59898;52.786;6.892;2023-05-07T03:55:06;35.90;;;26.13;;
52668;SDS011;59898;52.786;6.892;2023-05-07T03:58:27;29.42;;;24.27;;
52668;SDS011;59898;52.786;6.892;2023-05-07T04:01:48;31.85;;;24.85;;
52668;SDS011;59898;52.786;6.892;2023-05-07T04:05:08;34.85;;;25.13;;
52668;SDS011;59898;52.786;6.892;2023-05-07T04:08:29;30.02;;;23.77;;
52668;SDS011;59898;52.786;6.892;2023-05-07T04:11:50;31.75;;;24.80;;
52668;SDS011;59898;52.786;6.892;2023-05-07T04:15:11;33.05;;;23.83;;
52668;SDS011;59898;52.786;6.892;2023-05-07T04:18:31;37.17;;;24.98;;
52668;SDS011;59898;52.786;6.892;2023-05-07T04:21:52;32.92;;;23.67;;
52668;SDS011;59898;52.786;6.892;2023-05-07T04:25:12;27.77;;;23.17;;
52668;SDS011;59898;52.786;6.892;2023-05-07T04:28:34;29.98;;;24.42;;
52668;SDS011;59898;52.786;6.892;2023-05-07T04:31:55;29.77;;;22.98;;
52668;SDS011;59898;52.786;6.892;2023-05-07T04:35:16;30.63;;;24.25;;
52668;SDS011;59898;52.786;6.892;2023-05-07T04:38:37;26.98;;;22.42;;
52668;SDS011;59898;52.786;6.892;2023-05-07T04:41:58;26.67;;;22.65;;
52668;SDS011;59898;52.786;6.892;2023-05-07T04:45:19;28.20;;;22.10;;
52668;SDS011;59898;52.786;6.892;2023-05-07T04:48:41;29.42;;;22.15;;
52668;SDS011;59898;52.786;6.892;2023-05-07T04:52:01;27.88;;;21.85;;
52668;SDS011;59898;52.786;6.892;2023-05-07T04:55:23;32.53;;;22.70;;
52668;SDS011;59898;52.786;6.892;2023-05-07T04:58:43;26.50;;;21.48;;
52668;SDS011;59898;52.786;6.892;2023-05-07T05:02:04;28.70;;;22.30;;
52668;SDS011;59898;52.786;6.892;2023-05-07T05:05:25;29.52;;;21.30;;
52668;SDS011;59898;52.786;6.892;2023-05-07T05:08:45;26.67;;;20.33;;
52668;SDS011;59898;52.786;6.892;2023-05-07T05:12:06;28.08;;;21.67;;
52668;SDS011;59898;52.786;6.892;2023-05-07T05:15:27;27.45;;;20.90;;
52668;SDS011;59898;52.786;6.892;2023-05-07T05:18:47;29.20;;;22.10;;
52668;SDS011;59898;52.786;6.892;2023-05-07T05:22:08;26.83;;;21.83;;
52668;SDS011;59898;52.786;6.892;2023-05-07T05:25:29;27.25;;;21.23;;
52668;SDS011;59898;52.786;6.892;2023-05-07T05:28:49;27.52;;;21.65;;
52668;SDS011;59898;52.786;6.892;2023-05-07T05:32:10;29.63;;;23.33;;
52668;SDS011;59898;52.786;6.892;2023-05-07T05:35:30;30.23;;;22.30;;
52668;SDS011;59898;52.786;6.892;2023-05-07T05:38:51;28.20;;;22.33;;
52668;SDS011;59898;52.786;6.892;2023-05-07T05:42:12;31.10;;;23.20;;
52668;SDS011;59898;52.786;6.892;2023-05-07T05:45:32;29.45;;;22.83;;
52668;SDS011;59898;52.786;6.892;2023-05-07T05:48:53;28.80;;;22.73;;
52668;SDS011;59898;52.786;6.892;2023-05-07T05:52:14;30.10;;;23.30;;
52668;SDS011;59898;52.786;6.892;2023-05-07T05:55:34;30.60;;;23.25;;
52668;SDS011;59898;52.786;6.892;2023-05-07T05:58:55;30.98;;;23.38;;
52668;SDS011;59898;52.786;6.892;2023-05-07T06:02:15;32.17;;;23.63;;
52668;SDS011;59898;52.786;6.892;2023-05-07T06:05:36;31.63;;;23.23;;
52668;SDS011;59898;52.786;6.892;2023-05-07T06:08:57;29.77;;;24.08;;
52668;SDS011;59898;52.786;6.892;2023-05-07T06:12:17;32.08;;;22.65;;
52668;SDS011;59898;52.786;6.892;2023-05-07T06:15:38;32.25;;;25.20;;
52668;SDS011;59898;52.786;6.892;2023-05-07T06:18:58;33.42;;;23.88;;
52668;SDS011;59898;52.786;6.892;2023-05-07T06:22:19;34.58;;;23.45;;
52668;SDS011;59898;52.786;6.892;2023-05-07T06:25:39;33.63;;;22.83;;
52668;SDS011;59898;52.786;6.892;2023-05-07T06:29:00;30.77;;;23.95;;
52668;SDS011;59898;52.786;6.892;2023-05-07T06:32:21;30.33;;;23.75;;
52668;SDS011;59898;52.786;6.892;2023-05-07T06:35:41;32.55;;;23.98;;
52668;SDS011;59898;52.786;6.892;2023-05-07T06:39:02;37.15;;;24.77;;
52668;SDS011;59898;52.786;6.892;2023-05-07T06:42:22;35.20;;;24.58;;
52668;SDS011;59898;52.786;6.892;2023-05-07T06:45:43;33.35;;;24.83;;
52668;SDS011;59898;52.786;6.892;2023-05-07T06:49:03;30.83;;;24.52;;
52668;SDS011;59898;52.786;6.892;2023-05-07T06:52:24;33.80;;;24.70;;
52668;SDS011;59898;52.786;6.892;2023-05-07T06:55:46;34.22;;;25.88;;
52668;SDS011;59898;52.786;6.892;2023-05-07T06:59:06;34.10;;;27.40;;
52668;SDS011;59898;52.786;6.892;2023-05-07T07:02:27;30.48;;;24.88;;
52668;SDS011;59898;52.786;6.892;2023-05-07T07:05:47;34.95;;;24.20;;
52668;SDS011;59898;52.786;6.892;2023-05-07T07:09:12;34.60;;;24.85;;
52668;SDS011;59898;52.786;6.892;2023-05-07T07:12:32;31.38;;;24.17;;
52668;SDS011;59898;52.786;6.892;2023-05-07T07:15:53;37.45;;;25.85;;
52668;SDS011;59898;52.786;6.892;2023-05-07T07:19:13;32.00;;;25.20;;
52668;SDS011;59898;52.786;6.892;2023-05-07T07:22:35;35.10;;;25.55;;
52668;SDS011;59898;52.786;6.892;2023-05-07T07:25:55;36.80;;;25.02;;
52668;SDS011;59898;52.786;6.892;2023-05-07T07:29:16;35.10;;;23.05;;
52668;SDS011;59898;52.786;6.892;2023-05-07T07:32:38;33.58;;;24.67;;
52668;SDS011;59898;52.786;6.892;2023-05-07T07:35:59;31.60;;;25.80;;
52668;SDS011;59898;52.786;6.892;2023-05-07T07:39:19;30.70;;;24.00;;
52668;SDS011;59898;52.786;6.892;2023-05-07T07:42:40;32.60;;;24.83;;
52668;SDS011;59898;52.786;6.892;2023-05-07T07:46:01;32.03;;;25.45;;
52668;SDS011;59898;52.786;6.892;2023-05-07T07:49:21;36.17;;;25.30;;
52668;SDS011;59898;52.786;6.892;2023-05-07T07:52:42;32.83;;;25.48;;
52668;SDS011;59898;52.786;6.892;2023-05-07T07:56:03;32.90;;;24.10;;
52668;SDS011;59898;52.786;6.892;2023-05-07T07:59:24;33.45;;;24.02;;
52668;SDS011;59898;52.786;6.892;2023-05-07T08:02:45;32.35;;;24.23;;
52668;SDS011;59898;52.786;6.892;2023-05-07T08:06:05;32.97;;;24.17;;
52668;SDS011;59898;52.786;6.892;2023-05-07T08:09:26;33.08;;;25.45;;
52668;SDS011;59898;52.786;6.892;2023-05-07T08:12:47;33.17;;;24.02;;
52668;SDS011;59898;52.786;6.892;2023-05-07T08:16:08;29.90;;;24.02;;
52668;SDS011;59898;52.786;6.892;2023-05-07T08:19:29;31.05;;;23.98;;
52668;SDS011;59898;52.786;6.892;2023-05-07T08:22:50;29.88;;;25.58;;
52668;SDS011;59898;52.786;6.892;2023-05-07T08:26:11;35.88;;;24.17;;
52668;SDS011;59898;52.786;6.892;2023-05-07T08:29:32;30.77;;;23.35;;
52668;SDS011;59898;52.786;6.892;2023-05-07T08:32:52;30.77;;;24.38;;
52668;SDS011;59898;52.786;6.892;2023-05-07T08:36:13;27.10;;;22.27;;
52668;SDS011;59898;52.786;6.892;2023-05-07T08:39:33;26.25;;;22.42;;
52668;SDS011;59898;52.786;6.892;2023-05-07T08:42:54;30.20;;;22.23;;
52668;SDS011;59898;52.786;6.892;2023-05-07T08:46:17;27.85;;;23.73;;
52668;SDS011;59898;52.786;6.892;2023-05-07T08:49:39;29.90;;;21.75;;
52668;SDS011;59898;52.786;6.892;2023-05-07T08:53:02;29.77;;;21.67;;
52668;SDS011;59898;52.786;6.892;2023-05-07T08:56:23;24.40;;;20.27;;
52668;SDS011;59898;52.786;6.892;2023-05-07T08:59:45;24.15;;;19.92;;
52668;SDS011;59898;52.786;6.892;2023-05-07T09:03:05;24.95;;;20.42;;
52668;SDS011;59898;52.786;6.892;2023-05-07T09:06:26;25.15;;;19.42;;
52668;SDS011;59898;52.786;6.892;2023-05-07T09:09:46;26.85;;;20.15;;
52668;SDS011;59898;52.786;6.892;2023-05-07T09:13:07;25.15;;;19.98;;
52668;SDS011;59898;52.786;6.892;2023-05-07T09:16:28;26.30;;;19.17;;
52668;SDS011;59898;52.786;6.892;2023-05-07T09:19:50;23.80;;;19.40;;
52668;SDS011;59898;52.786;6.892;2023-05-07T09:23:11;21.58;;;18.90;;
52668;SDS011;59898;52.786;6.892;2023-05-07T09:26:32;22.35;;;19.38;;
52668;SDS011;59898;52.786;6.892;2023-05-07T09:29:53;26.23;;;20.38;;
52668;SDS011;59898;52.786;6.892;2023-05-07T09:33:14;23.20;;;18.55;;
52668;SDS011;59898;52.786;6.892;2023-05-07T09:36:35;25.60;;;19.15;;
52668;SDS011;59898;52.786;6.892;2023-05-07T09:39:55;23.92;;;19.25;;
52668;SDS011;59898;52.786;6.892;2023-05-07T09:43:16;23.77;;;18.65;;
52668;SDS011;59898;52.786;6.892;2023-05-07T09:46:37;20.70;;;17.33;;
52668;SDS011;59898;52.786;6.892;2023-05-07T09:49:59;20.63;;;17.35;;
52668;SDS011;59898;52.786;6.892;2023-05-07T09:53:24;19.42;;;16.77;;
52668;SDS011;59898;52.786;6.892;2023-05-07T09:56:45;19.55;;;17.52;;
52668;SDS011;59898;52.786;6.892;2023-05-07T10:00:09;21.10;;;17.25;;
52668;SDS011;59898;52.786;6.892;2023-05-07T10:03:30;20.48;;;17.13;;
52668;SDS011;59898;52.786;6.892;2023-05-07T10:06:53;22.27;;;17.08;;
52668;SDS011;59898;52.786;6.892;2023-05-07T10:10:15;21.33;;;18.27;;
52668;SDS011;59898;52.786;6.892;2023-05-07T10:13:37;19.38;;;16.95;;
52668;SDS011;59898;52.786;6.892;2023-05-07T10:16:58;21.70;;;17.42;;
52668;SDS011;59898;52.786;6.892;2023-05-07T10:20:20;19.83;;;17.17;;
52668;SDS011;59898;52.786;6.892;2023-05-07T10:23:40;18.63;;;16.35;;
52668;SDS011;59898;52.786;6.892;2023-05-07T10:27:05;18.17;;;14.98;;
52668;SDS011;59898;52.786;6.892;2023-05-07T10:30:33;19.95;;;17.08;;
52668;SDS011;59898;52.786;6.892;2023-05-07T10:34:08;20.00;;;16.67;;
52668;SDS011;59898;52.786;6.892;2023-05-07T10:37:32;17.77;;;15.90;;
52668;SDS011;59898;52.786;6.892;2023-05-07T10:40:54;20.58;;;16.77;;
52668;SDS011;59898;52.786;6.892;2023-05-07T10:44:30;18.48;;;16.45;;
52668;SDS011;59898;52.786;6.892;2023-05-07T10:48:07;21.70;;;17.90;;
52668;SDS011;59898;52.786;6.892;2023-05-07T10:51:37;17.25;;;14.95;;
52668;SDS011;59898;52.786;6.892;2023-05-07T10:58:38;19.90;;;16.95;;
52668;SDS011;59898;52.786;6.892;2023-05-07T11:02:02;19.60;;;16.75;;
52668;SDS011;59898;52.786;6.892;2023-05-07T11:05:24;17.75;;;15.68;;
52668;SDS011;59898;52.786;6.892;2023-05-07T11:08:57;19.13;;;15.55;;
52668;SDS011;59898;52.786;6.892;2023-05-07T11:15:57;18.77;;;15.32;;
52668;SDS011;59898;52.786;6.892;2023-05-07T11:19:24;19.63;;;15.55;;
52668;SDS011;59898;52.786;6.892;2023-05-07T11:26:51;18.77;;;16.35;;
52668;SDS011;59898;52.786;6.892;2023-05-07T11:30:18;21.08;;;15.90;;
52668;SDS011;59898;52.786;6.892;2023-05-07T11:33:39;17.90;;;16.02;;
52668;SDS011;59898;52.786;6.892;2023-05-07T11:37:00;19.60;;;15.98;;
52668;SDS011;59898;52.786;6.892;2023-05-07T11:40:22;18.80;;;15.77;;
52668;SDS011;59898;52.786;6.892;2023-05-07T11:43:55;18.33;;;15.23;;
52668;SDS011;59898;52.786;6.892;2023-05-07T11:47:17;17.10;;;15.40;;
52668;SDS011;59898;52.786;6.892;2023-05-07T11:54:15;17.45;;;15.57;;
52668;SDS011;59898;52.786;6.892;2023-05-07T11:57:36;16.23;;;14.52;;
52668;SDS011;59898;52.786;6.892;2023-05-07T12:00:57;18.80;;;16.45;;
52668;SDS011;59898;52.786;6.892;2023-05-07T12:04:20;18.05;;;16.15;;
52668;SDS011;59898;52.786;6.892;2023-05-07T12:07:41;16.63;;;14.82;;
52668;SDS011;59898;52.786;6.892;2023-05-07T12:11:01;16.23;;;14.20;;
52668;SDS011;59898;52.786;6.892;2023-05-07T12:14:26;15.30;;;13.45;;
52668;SDS011;59898;52.786;6.892;2023-05-07T12:17:47;15.85;;;13.75;;
52668;SDS011;59898;52.786;6.892;2023-05-07T12:21:09;18.35;;;14.88;;
52668;SDS011;59898;52.786;6.892;2023-05-07T12:28:05;15.85;;;13.65;;
52668;SDS011;59898;52.786;6.892;2023-05-07T12:31:27;18.67;;;16.67;;
52668;SDS011;59898;52.786;6.892;2023-05-07T12:34:51;16.02;;;14.38;;
52668;SDS011;59898;52.786;6.892;2023-05-07T12:38:13;15.63;;;14.02;;
52668;SDS011;59898;52.786;6.892;2023-05-07T12:45:17;15.45;;;13.88;;
52668;SDS011;59898;52.786;6.892;2023-05-07T12:48:38;17.88;;;15.02;;
52668;SDS011;59898;52.786;6.892;2023-05-07T12:52:03;16.75;;;15.13;;
52668;SDS011;59898;52.786;6.892;2023-05-07T12:55:23;18.77;;;15.45;;
52668;SDS011;59898;52.786;6.892;2023-05-07T12:58:44;15.57;;;13.63;;
52668;SDS011;59898;52.786;6.892;2023-05-07T13:02:05;16.75;;;15.02;;
52668;SDS011;59898;52.786;6.892;2023-05-07T13:05:26;16.23;;;14.63;;
52668;SDS011;59898;52.786;6.892;2023-05-07T13:08:46;13.52;;;12.13;;
52668;SDS011;59898;52.786;6.892;2023-05-07T13:12:07;13.40;;;12.10;;
52668;SDS011;59898;52.786;6.892;2023-05-07T13:15:27;12.32;;;11.02;;
52668;SDS011;59898;52.786;6.892;2023-05-07T13:18:48;16.70;;;12.98;;
52668;SDS011;59898;52.786;6.892;2023-05-07T13:22:09;14.40;;;12.90;;
52668;SDS011;59898;52.786;6.892;2023-05-07T13:25:30;14.23;;;12.82;;
52668;SDS011;59898;52.786;6.892;2023-05-07T13:28:50;12.68;;;11.40;;
52668;SDS011;59898;52.786;6.892;2023-05-07T13:32:12;14.63;;;13.13;;
52668;SDS011;59898;52.786;6.892;2023-05-07T13:35:32;13.93;;;12.52;;
52668;SDS011;59898;52.786;6.892;2023-05-07T13:38:53;14.90;;;13.40;;
52668;SDS011;59898;52.786;6.892;2023-05-07T13:42:13;14.13;;;12.82;;
52668;SDS011;59898;52.786;6.892;2023-05-07T13:45:34;13.32;;;11.57;;
52668;SDS011;59898;52.786;6.892;2023-05-07T13:48:55;13.95;;;12.68;;
52668;SDS011;59898;52.786;6.892;2023-05-07T13:52:16;18.05;;;12.23;;
52668;SDS011;59898;52.786;6.892;2023-05-07T13:55:37;13.82;;;12.32;;
52668;SDS011;59898;52.786;6.892;2023-05-07T13:58:58;13.90;;;12.60;;
52668;SDS011;59898;52.786;6.892;2023-05-07T14:02:18;13.38;;;11.77;;
52668;SDS011;59898;52.786;6.892;2023-05-07T14:05:39;13.80;;;12.38;;
52668;SDS011;59898;52.786;6.892;2023-05-07T14:09:00;14.50;;;13.10;;
52668;SDS011;59898;52.786;6.892;2023-05-07T14:12:21;13.55;;;12.20;;
52668;SDS011;59898;52.786;6.892;2023-05-07T14:15:41;12.85;;;11.55;;
52668;SDS011;59898;52.786;6.892;2023-05-07T14:19:06;14.65;;;13.15;;
52668;SDS011;59898;52.786;6.892;2023-05-07T14:22:26;12.57;;;11.38;;
52668;SDS011;59898;52.786;6.892;2023-05-07T14:25:47;14.70;;;11.80;;
52668;SDS011;59898;52.786;6.892;2023-05-07T14:29:07;13.65;;;11.73;;
52668;SDS011;59898;52.786;6.892;2023-05-07T14:32:28;11.93;;;10.18;;
52668;SDS011;59898;52.786;6.892;2023-05-07T14:35:48;11.35;;;10.15;;
52668;SDS011;59898;52.786;6.892;2023-05-07T14:39:10;12.05;;;10.85;;
52668;SDS011;59898;52.786;6.892;2023-05-07T14:42:30;12.35;;;11.02;;
52668;SDS011;59898;52.786;6.892;2023-05-07T14:45:51;13.48;;;10.05;;
52668;SDS011;59898;52.786;6.892;2023-05-07T14:49:13;13.98;;;9.93;;
52668;SDS011;59898;52.786;6.892;2023-05-07T14:52:36;12.55;;;11.25;;
52668;SDS011;59898;52.786;6.892;2023-05-07T14:55:57;12.80;;;11.50;;
52668;SDS011;59898;52.786;6.892;2023-05-07T14:59:18;12.82;;;11.45;;
52668;SDS011;59898;52.786;6.892;2023-05-07T15:02:41;17.60;;;12.07;;
52668;SDS011;59898;52.786;6.892;2023-05-07T15:06:01;13.20;;;11.82;;
52668;SDS011;59898;52.786;6.892;2023-05-07T15:09:22;15.27;;;11.15;;
52668;SDS011;59898;52.786;6.892;2023-05-07T15:12:43;13.57;;;11.85;;
52668;SDS011;59898;52.786;6.892;2023-05-07T15:16:03;13.80;;;11.95;;
52668;SDS011;59898;52.786;6.892;2023-05-07T15:19:24;15.43;;;13.80;;
52668;SDS011;59898;52.786;6.892;2023-05-07T15:22:48;13.95;;;12.55;;
52668;SDS011;59898;52.786;6.892;2023-05-07T15:26:09;13.40;;;12.00;;
52668;SDS011;59898;52.786;6.892;2023-05-07T15:29:30;15.30;;;13.70;;
52668;SDS011;59898;52.786;6.892;2023-05-07T15:32:51;15.65;;;11.98;;
52668;SDS011;59898;52.786;6.892;2023-05-07T15:36:11;15.50;;;12.85;;
52668;SDS011;59898;52.786;6.892;2023-05-07T15:39:32;15.30;;;13.70;;
52668;SDS011;59898;52.786;6.892;2023-05-07T15:42:54;17.00;;;14.57;;
52668;SDS011;59898;52.786;6.892;2023-05-07T15:46:18;16.85;;;15.15;;
52668;SDS011;59898;52.786;6.892;2023-05-07T15:49:40;15.35;;;13.85;;
52668;SDS011;59898;52.786;6.892;2023-05-07T15:53:01;15.23;;;13.70;;
52668;SDS011;59898;52.786;6.892;2023-05-07T15:56:23;16.45;;;14.68;;
52668;SDS011;59898;52.786;6.892;2023-05-07T15:59:44;17.25;;;15.35;;
52668;SDS011;59898;52.786;6.892;2023-05-07T16:03:04;15.07;;;13.57;;
52668;SDS011;59898;52.786;6.892;2023-05-07T16:06:25;16.25;;;14.60;;
52668;SDS011;59898;52.786;6.892;2023-05-07T16:09:46;16.80;;;14.63;;
52668;SDS011;59898;52.786;6.892;2023-05-07T16:13:07;16.48;;;14.73;;
52668;SDS011;59898;52.786;6.892;2023-05-07T16:16:27;15.30;;;13.70;;
52668;SDS011;59898;52.786;6.892;2023-05-07T16:19:51;16.38;;;14.23;;
52668;SDS011;59898;52.786;6.892;2023-05-07T16:23:12;13.13;;;11.73;;
52668;SDS011;59898;52.786;6.892;2023-05-07T16:26:32;13.63;;;12.10;;
52668;SDS011;59898;52.786;6.892;2023-05-07T16:29:53;12.63;;;11.25;;
52668;SDS011;59898;52.786;6.892;2023-05-07T16:33:13;13.23;;;11.50;;
52668;SDS011;59898;52.786;6.892;2023-05-07T16:36:34;13.07;;;11.68;;
52668;SDS011;59898;52.786;6.892;2023-05-07T16:39:55;12.75;;;11.40;;
52668;SDS011;59898;52.786;6.892;2023-05-07T16:43:15;13.05;;;11.65;;
52668;SDS011;59898;52.786;6.892;2023-05-07T16:46:36;13.00;;;11.45;;
52668;SDS011;59898;52.786;6.892;2023-05-07T16:49:56;13.75;;;10.88;;
52668;SDS011;59898;52.786;6.892;2023-05-07T16:53:19;13.48;;;11.30;;
52668;SDS011;59898;52.786;6.892;2023-05-07T16:56:40;13.50;;;12.02;;
52668;SDS011;59898;52.786;6.892;2023-05-07T17:00:01;14.30;;;11.95;;
52668;SDS011;59898;52.786;6.892;2023-05-07T17:03:25;12.82;;;11.40;;
52668;SDS011;59898;52.786;6.892;2023-05-07T17:06:47;14.38;;;12.63;;
52668;SDS011;59898;52.786;6.892;2023-05-07T17:10:08;23.08;;;14.23;;
52668;SDS011;59898;52.786;6.892;2023-05-07T17:13:29;15.70;;;12.85;;
52668;SDS011;59898;52.786;6.892;2023-05-07T17:16:50;14.45;;;12.95;;
52668;SDS011;59898;52.786;6.892;2023-05-07T17:20:10;14.65;;;13.25;;
52668;SDS011;59898;52.786;6.892;2023-05-07T17:23:31;15.23;;;13.68;;
52668;SDS011;59898;52.786;6.892;2023-05-07T17:26:52;15.25;;;13.43;;
52668;SDS011;59898;52.786;6.892;2023-05-07T17:30:12;14.30;;;12.90;;
52668;SDS011;59898;52.786;6.892;2023-05-07T17:33:35;14.48;;;12.85;;
52668;SDS011;59898;52.786;6.892;2023-05-07T17:36:55;14.90;;;13.40;;
52668;SDS011;59898;52.786;6.892;2023-05-07T17:40:17;15.00;;;13.50;;
52668;SDS011;59898;52.786;6.892;2023-05-07T17:43:41;15.88;;;12.85;;
52668;SDS011;59898;52.786;6.892;2023-05-07T17:47:01;15.82;;;13.40;;
52668;SDS011;59898;52.786;6.892;2023-05-07T17:50:22;14.93;;;13.38;;
52668;SDS011;59898;52.786;6.892;2023-05-07T17:53:43;14.55;;;13.05;;
52668;SDS011;59898;52.786;6.892;2023-05-07T17:57:03;16.02;;;14.23;;
52668;SDS011;59898;52.786;6.892;2023-05-07T18:00:24;16.23;;;13.48;;
52668;SDS011;59898;52.786;6.892;2023-05-07T18:03:45;15.13;;;13.60;;
52668;SDS011;59898;52.786;6.892;2023-05-07T18:07:05;15.63;;;13.60;;
52668;SDS011;59898;52.786;6.892;2023-05-07T18:10:26;15.27;;;12.85;;
52668;SDS011;59898;52.786;6.892;2023-05-07T18:13:46;15.40;;;14.00;;
52668;SDS011;59898;52.786;6.892;2023-05-07T18:17:07;15.85;;;13.38;;
52668;SDS011;59898;52.786;6.892;2023-05-07T18:20:28;16.08;;;13.38;;
52668;SDS011;59898;52.786;6.892;2023-05-07T18:23:48;14.90;;;13.40;;
52668;SDS011;59898;52.786;6.892;2023-05-07T18:27:10;14.30;;;12.90;;
52668;SDS011;59898;52.786;6.892;2023-05-07T18:30:32;16.27;;;12.10;;
52668;SDS011;59898;52.786;6.892;2023-05-07T18:33:53;15.35;;;13.50;;
52668;SDS011;59898;52.786;6.892;2023-05-07T18:37:14;14.10;;;12.70;;
52668;SDS011;59898;52.786;6.892;2023-05-07T18:40:35;14.43;;;12.63;;
52668;SDS011;59898;52.786;6.892;2023-05-07T18:43:56;13.40;;;11.82;;
52668;SDS011;59898;52.786;6.892;2023-05-07T18:47:16;13.57;;;11.27;;
52668;SDS011;59898;52.786;6.892;2023-05-07T18:50:40;14.93;;;11.18;;
52668;SDS011;59898;52.786;6.892;2023-05-07T18:54:03;12.13;;;10.60;;
52668;SDS011;59898;52.786;6.892;2023-05-07T18:57:24;13.00;;;11.60;;
52668;SDS011;59898;52.786;6.892;2023-05-07T19:00:47;16.67;;;11.00;;
52668;SDS011;59898;52.786;6.892;2023-05-07T19:04:08;11.65;;;10.50;;
52668;SDS011;59898;52.786;6.892;2023-05-07T19:07:29;12.75;;;11.43;;
52668;SDS011;59898;52.786;6.892;2023-05-07T19:10:49;13.35;;;11.02;;
52668;SDS011;59898;52.786;6.892;2023-05-07T19:14:10;11.57;;;10.32;;
52668;SDS011;59898;52.786;6.892;2023-05-07T19:17:31;11.43;;;10.23;;
52668;SDS011;59898;52.786;6.892;2023-05-07T19:20:51;12.02;;;10.82;;
52668;SDS011;59898;52.786;6.892;2023-05-07T19:24:12;11.63;;;9.93;;
52668;SDS011;59898;52.786;6.892;2023-05-07T19:27:32;11.75;;;10.55;;
52668;SDS011;59898;52.786;6.892;2023-05-07T19:30:53;12.90;;;11.57;;
52668;SDS011;59898;52.786;6.892;2023-05-07T19:34:14;11.85;;;10.57;;
52668;SDS011;59898;52.786;6.892;2023-05-07T19:37:34;11.55;;;10.40;;
52668;SDS011;59898;52.786;6.892;2023-05-07T19:40:55;12.45;;;11.18;;
52668;SDS011;59898;52.786;6.892;2023-05-07T19:44:16;12.68;;;11.25;;
52668;SDS011;59898;52.786;6.892;2023-05-07T19:47:37;11.73;;;10.57;;
52668;SDS011;59898;52.786;6.892;2023-05-07T19:50:57;12.93;;;10.85;;
52668;SDS011;59898;52.786;6.892;2023-05-07T19:54:18;11.02;;;9.88;;
52668;SDS011;59898;52.786;6.892;2023-05-07T19:57:39;12.27;;;10.15;;
52668;SDS011;59898;52.786;6.892;2023-05-07T20:01:00;12.80;;;11.50;;